sensor_id;sensor_type;location;lat;lon;timestamp;pressure;altitude;pressure_sealevel;temperature;humidity
48029;BME280;33808;37.368;127.108;2023-03-22T00:01:23;100419.81;;;13.85;nan
48029;BME280;33808;37.368;127.108;2023-03-22T00:03:53;100364.09;;;13.96;nan
48029;BME280;33808;37.368;127.108;2023-03-22T00:06:24;100396.75;;;14.25;nan
48029;BME280;33808;37.368;127.108;2023-03-22T00:08:54;100394.75;;;14.46;nan
48029;BME280;33808;37.368;127.108;2023-03-22T00:11:24;100367.84;;;14.59;nan
48029;BME280;33808;37.368;127.108;2023-03-22T00:13:54;100385.31;;;14.92;nan
48029;BME280;33808;37.368;127.108;2023-03-22T00:16:24;100386.66;;;14.99;nan
48029;BME280;33808;37.368;127.108;2023-03-22T00:21:23;100394.13;;;15.38;nan
48029;BME280;33808;37.368;127.108;2023-03-22T00:23:52;100406.97;;;15.59;nan
48029;BME280;33808;37.368;127.108;2023-03-22T00:26:22;100395.34;;;15.47;nan
48029;BME280;33808;37.368;127.108;2023-03-22T00:28:51;100390.00;;;15.49;nan
48029;BME280;33808;37.368;127.108;2023-03-22T00:31:21;100396.06;;;15.65;nan
48029;BME280;33808;37.368;127.108;2023-03-22T00:33:51;100395.53;;;15.90;nan
48029;BME280;33808;37.368;127.108;2023-03-22T00:36:20;100394.00;;;15.86;nan
48029;BME280;33808;37.368;127.108;2023-03-22T00:38:50;100388.34;;;15.78;nan
48029;BME280;33808;37.368;127.108;2023-03-22T00:41:23;100387.72;;;15.89;nan
48029;BME280;33808;37.368;127.108;2023-03-22T00:43:53;100393.34;;;15.82;nan
48029;BME280;33808;37.368;127.108;2023-03-22T00:48:51;100386.22;;;16.13;nan
48029;BME280;33808;37.368;127.108;2023-03-22T00:53:50;100403.66;;;16.30;nan
48029;BME280;33808;37.368;127.108;2023-03-22T00:56:21;100373.41;;;16.50;nan
48029;BME280;33808;37.368;127.108;2023-03-22T01:01:22;100367.97;;;16.53;nan
48029;BME280;33808;37.368;127.108;2023-03-22T01:03:52;100365.66;;;16.76;nan
48029;BME280;33808;37.368;127.108;2023-03-22T01:06:22;100359.56;;;17.03;nan
48029;BME280;33808;37.368;127.108;2023-03-22T01:11:23;100370.78;;;17.33;nan
48029;BME280;33808;37.368;127.108;2023-03-22T01:13:53;100363.84;;;17.32;nan
48029;BME280;33808;37.368;127.108;2023-03-22T01:16:23;100366.44;;;17.19;nan
48029;BME280;33808;37.368;127.108;2023-03-22T01:18:53;100359.28;;;17.34;nan
48029;BME280;33808;37.368;127.108;2023-03-22T01:21:23;100358.41;;;17.34;nan
48029;BME280;33808;37.368;127.108;2023-03-22T01:23:52;100348.66;;;17.09;nan
48029;BME280;33808;37.368;127.108;2023-03-22T01:26:22;100342.75;;;17.18;nan
48029;BME280;33808;37.368;127.108;2023-03-22T01:28:52;100347.06;;;17.46;nan
48029;BME280;33808;37.368;127.108;2023-03-22T01:31:21;100335.00;;;17.42;nan
48029;BME280;33808;37.368;127.108;2023-03-22T01:33:51;100336.09;;;17.65;nan
48029;BME280;33808;37.368;127.108;2023-03-22T01:38:50;100333.56;;;17.76;nan
48029;BME280;33808;37.368;127.108;2023-03-22T01:41:19;100328.59;;;17.72;nan
48029;BME280;33808;37.368;127.108;2023-03-22T01:46:42;100336.47;;;18.12;nan
48029;BME280;33808;37.368;127.108;2023-03-22T01:49:31;100327.13;;;18.19;nan
48029;BME280;33808;37.368;127.108;2023-03-22T01:52:08;100330.22;;;18.00;nan
48029;BME280;33808;37.368;127.108;2023-03-22T01:54:44;100325.09;;;18.35;nan
48029;BME280;33808;37.368;127.108;2023-03-22T01:57:15;100323.22;;;18.62;nan
48029;BME280;33808;37.368;127.108;2023-03-22T01:59:46;100319.41;;;18.29;nan
48029;BME280;33808;37.368;127.108;2023-03-22T02:02:18;100316.25;;;18.24;nan
48029;BME280;33808;37.368;127.108;2023-03-22T02:04:47;100310.31;;;18.33;nan
48029;BME280;33808;37.368;127.108;2023-03-22T02:07:25;100304.56;;;18.39;nan
48029;BME280;33808;37.368;127.108;2023-03-22T02:09:56;100309.63;;;18.55;nan
48029;BME280;33808;37.368;127.108;2023-03-22T02:15:32;100305.59;;;18.49;nan
48029;BME280;33808;37.368;127.108;2023-03-22T02:18:27;100305.31;;;18.65;nan
48029;BME280;33808;37.368;127.108;2023-03-22T02:24:08;100289.28;;;18.92;nan
48029;BME280;33808;37.368;127.108;2023-03-22T02:27:14;100288.59;;;19.37;nan
48029;BME280;33808;37.368;127.108;2023-03-22T02:35:29;100277.56;;;19.66;nan
48029;BME280;33808;37.368;127.108;2023-03-22T02:38:09;100279.75;;;19.72;nan
48029;BME280;33808;37.368;127.108;2023-03-22T02:43:35;100270.03;;;19.95;nan
48029;BME280;33808;37.368;127.108;2023-03-22T02:46:23;100232.25;;;19.69;nan
48029;BME280;33808;37.368;127.108;2023-03-22T02:51:46;100212.41;;;20.08;nan
48029;BME280;33808;37.368;127.108;2023-03-22T02:54:44;100233.03;;;19.82;nan
48029;BME280;33808;37.368;127.108;2023-03-22T02:59:55;100214.69;;;20.13;nan
48029;BME280;33808;37.368;127.108;2023-03-22T03:02:28;100214.19;;;20.19;nan
48029;BME280;33808;37.368;127.108;2023-03-22T03:04:59;100213.16;;;19.99;nan
48029;BME280;33808;37.368;127.108;2023-03-22T03:07:29;100200.09;;;20.07;nan
48029;BME280;33808;37.368;127.108;2023-03-22T03:09:59;100199.13;;;20.20;nan
48029;BME280;33808;37.368;127.108;2023-03-22T03:12:29;100199.66;;;20.46;nan
48029;BME280;33808;37.368;127.108;2023-03-22T03:14:59;100181.63;;;20.28;nan
48029;BME280;33808;37.368;127.108;2023-03-22T03:17:38;100190.53;;;20.27;nan
48029;BME280;33808;37.368;127.108;2023-03-22T03:34:12;100156.44;;;20.55;nan
48029;BME280;33808;37.368;127.108;2023-03-22T03:36:54;100148.34;;;20.57;nan
48029;BME280;33808;37.368;127.108;2023-03-22T03:39:29;100145.47;;;20.81;nan
